SAAJ/JNI METAR and TAF weather

Enter ICAO airport designator
Station Type Date Time Source
SAAJ METAR 2019/04/04 12:30 UTC NOAA

SAAJ 041230Z 25021G42KT 4000 TSRA OVC008 19/17 Q9990


Station Type Date Time Source
SAAJ Decoded METAR 2019/04/04 12:30 UTC NOAA

Junin Aerodrome, Argentina (SAAJ) 34-33S 060-55W 81M
Apr 04, 2019 - 08:30 AM EDT / 2019.04.04 1230 UTC
Wind: from the WSW (250 degrees) at 24 MPH (21 KT) gusting to 48 MPH (42 KT):0
Visibility: 2 mile(s):0
Sky conditions: overcast
Weather: rain with thunder
Temperature: 66 F (19 C)
Dew Point: 62 F (17 C)
Relative Humidity: 88%
Pressure (altimeter): 295.00 in. Hg (9990 hPa)
ob: SAAJ 041230Z 25021G42KT 4000 TSRA OVC008 19/17 Q9990
cycle: 12

Station Type Date Time Source
SAAJ TAF UTC NOAA

Error!

Example: see airport list